Time;durP1;ratioP1;P1;durP2;ratioP2;P2;SDS_P1;SDS_P2;PMS_P1;PMS_P2;Temp;Humidity;BMP_temperature;BMP_pressure;BME280_temperature;BME280_humidity;BME280_pressure;Samples;Min_cycle;Max_cycle;Signal;HPM_P1;HPM_P2
2022/04/11 00:00:39;;;;;;;7.40;2.28;;;4.90;94.40;;;;;;5062810;28;37340;-57
2022/04/11 00:03:06;;;;;;;7.28;2.50;;;5.00;94.40;;;;;;5063216;28;36906;-57
2022/04/11 00:05:34;;;;;;;7.72;1.63;;;5.00;94.60;;;;;;5061423;28;37252;-57
2022/04/11 00:08:02;;;;;;;5.75;1.98;;;5.00;94.50;;;;;;5064881;28;36920;-57
2022/04/11 00:10:30;;;;;;;6.65;2.15;;;5.00;94.50;;;;;;5065133;28;39272;-58
2022/04/11 00:13:03;;;;;;;6.93;2.63;;;5.10;94.50;;;;;;5064209;28;37956;-48
2022/04/11 00:15:33;;;;;;;4.70;2.10;;;5.00;94.70;;;;;;5063824;28;35622;-51
2022/04/11 00:18:01;;;;;;;5.38;1.60;;;5.00;94.40;;;;;;5062882;28;37594;-48
2022/04/11 00:20:29;;;;;;;5.53;1.83;;;4.90;94.20;;;;;;5063574;28;37501;-49
2022/04/11 00:22:56;;;;;;;8.25;1.63;;;4.80;94.20;;;;;;5063482;28;38938;-51
2022/04/11 00:25:24;;;;;;;4.80;1.50;;;4.70;94.20;;;;;;5064567;28;38812;-49
2022/04/11 00:27:52;;;;;;;4.20;1.52;;;4.60;94.20;;;;;;5063199;28;35360;-57
2022/04/11 00:30:21;;;;;;;4.38;1.35;;;4.50;94.10;;;;;;5061740;28;38231;-56
2022/04/11 00:32:51;;;;;;;4.05;1.08;;;4.40;94.10;;;;;;5062109;28;38360;-57
2022/04/11 00:35:18;;;;;;;3.00;1.30;;;4.30;94.10;;;;;;5061629;28;40138;-56
2022/04/11 00:37:46;;;;;;;6.43;2.22;;;4.20;94.20;;;;;;5062003;28;36585;-50
2022/04/11 00:40:13;;;;;;;3.80;1.25;;;4.20;94.50;;;;;;5062241;28;36581;-48
2022/04/11 00:42:42;;;;;;;5.45;1.63;;;4.20;94.80;;;;;;5063019;28;38337;-51
2022/04/11 00:45:10;;;;;;;3.55;1.33;;;4.10;94.80;;;;;;5064000;28;37853;-57
2022/04/11 00:47:39;;;;;;;4.82;1.52;;;4.10;95.00;;;;;;5061996;28;36822;-50
2022/04/11 00:50:09;;;;;;;4.15;1.10;;;4.10;95.00;;;;;;5064246;28;40124;-49
2022/04/11 00:52:41;;;;;;;6.93;1.88;;;4.10;95.30;;;;;;5062576;28;39586;-49
2022/04/11 00:55:09;;;;;;;5.53;1.48;;;4.10;95.40;;;;;;5064211;28;38881;-50
2022/04/11 00:57:37;;;;;;;3.13;1.40;;;4.10;95.40;;;;;;5063393;28;36989;-56
2022/04/11 01:00:06;;;;;;;3.30;1.20;;;4.10;95.40;;;;;;5063131;28;37933;-57
2022/04/11 01:02:34;;;;;;;7.40;1.00;;;4.10;95.30;;;;;;5062928;28;38644;-57
2022/04/11 01:05:06;;;;;;;3.35;1.33;;;4.10;95.20;;;;;;5060871;28;37581;-57
2022/04/11 01:07:34;;;;;;;6.43;2.22;;;4.00;95.40;;;;;;5063354;28;36466;-56
2022/04/11 01:10:01;;;;;;;6.20;1.70;;;3.90;95.70;;;;;;5064483;28;36328;-57
2022/04/11 01:12:28;;;;;;;3.08;0.95;;;3.90;96.10;;;;;;5063823;28;38264;-57
2022/04/11 01:14:56;;;;;;;4.20;1.33;;;3.80;96.10;;;;;;5063269;28;37611;-57
2022/04/11 01:17:33;;;;;;;4.85;1.45;;;3.80;96.30;;;;;;5062987;28;36055;-57
2022/04/11 01:20:00;;;;;;;4.63;1.33;;;3.80;96.50;;;;;;5063752;28;39865;-57
2022/04/11 01:22:29;;;;;;;6.13;2.17;;;3.90;96.40;;;;;;5062163;28;38728;-57
2022/04/11 01:24:56;;;;;;;4.43;1.38;;;3.90;96.40;;;;;;5062691;28;38912;-56
2022/04/11 01:27:26;;;;;;;5.97;1.52;;;4.00;96.40;;;;;;5062621;28;35472;-50
2022/04/11 01:29:53;;;;;;;3.67;1.10;;;4.00;96.10;;;;;;5063146;28;37581;-57
2022/04/11 01:32:20;;;;;;;3.60;1.30;;;4.00;96.10;;;;;;5061932;28;39583;-57
2022/04/11 01:34:48;;;;;;;3.42;1.48;;;4.00;96.10;;;;;;5061998;28;38676;-56
2022/04/11 01:37:15;;;;;;;4.75;1.65;;;4.00;96.20;;;;;;5063243;28;37214;-57
2022/04/11 01:39:44;;;;;;;4.13;1.40;;;4.00;96.00;;;;;;5063723;28;37463;-57
2022/04/11 01:42:11;;;;;;;6.93;1.70;;;4.00;96.00;;;;;;5062568;28;38029;-57
2022/04/11 01:44:38;;;;;;;4.50;1.60;;;4.00;96.10;;;;;;5062886;28;37790;-57
2022/04/11 01:47:06;;;;;;;2.60;1.10;;;4.00;96.20;;;;;;5062495;28;35222;-57
2022/04/11 01:49:33;;;;;;;3.17;1.15;;;4.00;96.00;;;;;;5062509;28;38005;-57
2022/04/11 01:52:00;;;;;;;3.75;1.50;;;4.00;95.90;;;;;;5062939;28;38421;-57
2022/04/11 01:54:27;;;;;;;5.97;1.40;;;4.00;96.00;;;;;;5063145;28;36718;-56
2022/04/11 01:56:56;;;;;;;3.95;1.42;;;4.00;95.90;;;;;;5062955;28;36520;-56
2022/04/11 01:59:24;;;;;;;3.80;1.38;;;4.00;96.00;;;;;;5061953;28;38916;-57
2022/04/11 02:01:51;;;;;;;3.72;1.73;;;4.00;95.90;;;;;;5062160;28;38661;-57
2022/04/11 02:04:21;;;;;;;5.47;1.40;;;4.00;96.10;;;;;;5062344;28;36424;-57
2022/04/11 02:06:51;;;;;;;5.72;1.65;;;4.00;96.20;;;;;;5061120;28;37378;-57
2022/04/11 02:09:18;;;;;;;5.60;1.30;;;4.00;96.40;;;;;;5062307;28;39755;-57
2022/04/11 02:11:46;;;;;;;3.78;1.20;;;4.00;96.40;;;;;;5062636;28;38013;-57
2022/04/11 02:14:15;;;;;;;4.28;1.40;;;4.00;96.30;;;;;;5062694;28;37939;-57
2022/04/11 02:16:42;;;;;;;4.85;1.40;;;4.00;96.20;;;;;;5064607;28;36597;-57
2022/04/11 02:19:09;;;;;;;4.45;1.50;;;4.00;96.20;;;;;;5066506;28;39515;-57
2022/04/11 02:21:37;;;;;;;5.82;1.50;;;4.00;96.20;;;;;;5064688;28;38787;-57
2022/04/11 02:24:05;;;;;;;3.67;1.42;;;4.00;96.10;;;;;;5062791;28;37737;-56
2022/04/11 02:26:32;;;;;;;3.88;1.40;;;4.00;96.20;;;;;;5064637;28;35377;-57
2022/04/11 02:28:59;;;;;;;5.60;1.70;;;3.90;96.20;;;;;;5066427;28;37572;-57
2022/04/11 02:31:28;;;;;;;7.38;2.20;;;3.90;96.10;;;;;;5063888;28;39108;-57
2022/04/11 02:33:56;;;;;;;3.47;1.20;;;3.90;96.20;;;;;;5064447;28;38222;-57
2022/04/11 02:36:23;;;;;;;6.45;1.50;;;3.90;96.30;;;;;;5065744;28;35509;-57
2022/04/11 02:38:51;;;;;;;3.60;1.20;;;3.90;96.40;;;;;;5065509;28;37272;-56
2022/04/11 02:41:19;;;;;;;4.13;1.50;;;3.90;96.40;;;;;;5066179;28;38217;-57
2022/04/11 02:43:46;;;;;;;9.68;1.50;;;3.90;96.20;;;;;;5065355;28;37966;-57
2022/04/11 02:46:13;;;;;;;4.53;1.30;;;3.80;96.10;;;;;;5065688;28;37365;-57
2022/04/11 02:48:42;;;;;;;3.50;1.17;;;3.80;96.10;;;;;;5065442;28;37228;-57
2022/04/11 02:51:10;;;;;;;5.57;1.48;;;3.80;96.20;;;;;;5065839;28;38353;-57
2022/04/11 02:53:37;;;;;;;3.67;1.15;;;3.80;96.30;;;;;;5065502;28;39050;-56
2022/04/11 02:56:08;;;;;;;4.40;1.48;;;3.80;96.50;;;;;;5066263;28;36802;-57
2022/04/11 02:58:35;;;;;;;4.40;1.50;;;3.80;96.50;;;;;;5065222;28;37822;-57
2022/04/11 03:01:02;;;;;;;4.00;1.50;;;3.80;96.40;;;;;;5065540;28;38606;-56
2022/04/11 03:03:30;;;;;;;6.32;1.50;;;3.90;96.70;;;;;;5064501;28;36766;-57
2022/04/11 03:06:02;;;;;;;5.57;1.50;;;3.80;96.90;;;;;;5064102;28;37356;-57
2022/04/11 03:08:29;;;;;;;3.00;1.02;;;3.90;97.20;;;;;;5064303;28;37552;-57
2022/04/11 03:10:57;;;;;;;3.05;1.20;;;3.90;97.10;;;;;;5065359;28;38681;-58
2022/04/11 03:13:24;;;;;;;2.97;1.40;;;4.00;96.90;;;;;;5065130;28;36868;-57
2022/04/11 03:15:51;;;;;;;4.40;1.90;;;4.00;97.00;;;;;;5065223;28;37471;-57
2022/04/11 03:18:18;;;;;;;3.08;1.20;;;4.00;97.00;;;;;;5064668;28;37541;-57
2022/04/11 03:20:47;;;;;;;3.85;1.25;;;4.10;97.00;;;;;;5065007;28;37848;-57
2022/04/11 03:23:17;;;;;;;3.70;1.45;;;4.00;97.00;;;;;;5063973;28;37800;-57
2022/04/11 03:25:45;;;;;;;6.18;1.90;;;4.10;97.30;;;;;;5065050;28;36333;-56
2022/04/11 03:28:12;;;;;;;5.65;1.80;;;4.20;97.70;;;;;;5064655;28;37364;-57
2022/04/11 03:30:39;;;;;;;5.35;1.70;;;4.20;97.40;;;;;;5065366;28;38295;-56
2022/04/11 03:33:07;;;;;;;7.78;1.90;;;4.20;97.40;;;;;;5064607;28;37682;-56
2022/04/11 03:35:34;;;;;;;4.93;1.90;;;4.30;97.40;;;;;;5063502;28;35488;-57
2022/04/11 03:38:01;;;;;;;3.83;1.42;;;4.30;97.30;;;;;;5064004;28;37944;-58
2022/04/11 03:40:30;;;;;;;4.13;1.40;;;4.30;97.50;;;;;;5063591;28;39049;-57
2022/04/11 03:42:57;;;;;;;4.82;1.60;;;4.30;97.80;;;;;;5063947;28;38748;-56
2022/04/11 03:45:25;;;;;;;3.67;1.48;;;4.30;97.90;;;;;;5065166;28;36554;-57
2022/04/11 03:47:52;;;;;;;4.50;1.42;;;4.30;97.80;;;;;;5064609;28;37424;-56
2022/04/11 03:50:19;;;;;;;8.93;3.50;;;4.40;97.70;;;;;;5065515;28;37119;-56
2022/04/11 03:52:47;;;;;;;5.18;1.80;;;4.40;97.40;;;;;;5063690;28;37369;-57
2022/04/11 03:55:14;;;;;;;4.20;1.42;;;4.40;97.30;;;;;;5065012;28;36947;-57
2022/04/11 03:57:43;;;;;;;5.50;1.60;;;4.40;97.20;;;;;;5064325;28;37460;-57
2022/04/11 04:00:11;;;;;;;7.25;1.95;;;4.40;97.00;;;;;;5063958;28;38108;-58
2022/04/11 04:02:38;;;;;;;5.93;1.92;;;4.50;97.00;;;;;;5064564;28;38134;-56
2022/04/11 04:05:08;;;;;;;9.93;2.35;;;4.50;97.00;;;;;;5063630;28;36888;-55
2022/04/11 04:07:36;;;;;;;9.02;2.00;;;4.50;96.90;;;;;;5064017;28;37586;-57
2022/04/11 04:10:05;;;;;;;6.90;1.85;;;4.50;96.90;;;;;;5064200;28;38175;-57
2022/04/11 04:12:35;;;;;;;6.38;1.98;;;4.50;96.90;;;;;;5064308;28;36556;-57
2022/04/11 04:15:04;;;;;;;6.28;1.80;;;4.50;96.90;;;;;;5064637;28;37403;-57
2022/04/11 04:17:31;;;;;;;5.65;1.90;;;4.50;97.10;;;;;;5064014;28;37824;-57
2022/04/11 04:19:59;;;;;;;7.82;2.00;;;4.50;97.20;;;;;;5064687;28;38880;-57
2022/04/11 04:22:26;;;;;;;5.63;2.10;;;4.50;97.50;;;;;;5064103;28;39173;-57
2022/04/11 04:24:56;;;;;;;4.93;1.90;;;4.50;97.40;;;;;;5064358;28;36522;-57
2022/04/11 04:27:26;;;;;;;7.03;1.83;;;4.60;97.30;;;;;;5063597;28;37954;-56
2022/04/11 04:29:54;;;;;;;5.78;1.77;;;4.60;97.50;;;;;;5064463;28;38134;-57
2022/04/11 04:32:23;;;;;;;5.70;1.90;;;4.70;97.40;;;;;;5064326;28;36857;-56
2022/04/11 04:34:50;;;;;;;3.67;1.80;;;4.80;97.50;;;;;;5063278;28;37519;-57
2022/04/11 04:37:18;;;;;;;7.10;2.20;;;4.80;97.40;;;;;;5063648;28;37317;-56
2022/04/11 04:39:47;;;;;;;9.02;2.33;;;4.80;97.30;;;;;;5062968;28;38263;-57
2022/04/11 04:42:21;;;;;;;6.88;2.08;;;4.80;97.20;;;;;;5063959;28;36735;-57
2022/04/11 04:44:48;;;;;;;6.47;2.20;;;4.80;97.30;;;;;;5064367;28;36083;-56
2022/04/11 04:47:16;;;;;;;7.13;2.08;;;4.80;97.30;;;;;;5063909;28;38316;-56
2022/04/11 04:49:46;;;;;;;8.23;2.60;;;4.80;97.30;;;;;;5063630;28;38770;-56
2022/04/11 04:52:13;;;;;;;6.28;2.10;;;4.90;97.30;;;;;;5064325;28;39174;-57
2022/04/11 04:54:41;;;;;;;5.63;2.50;;;4.90;97.40;;;;;;5065322;28;37739;-57
2022/04/11 04:57:08;;;;;;;8.23;2.90;;;4.90;97.20;;;;;;5064171;28;36350;-57
2022/04/11 04:59:36;;;;;;;5.45;2.67;;;4.90;97.00;;;;;;5063448;28;38216;-56
2022/04/11 05:02:06;;;;;;;8.50;2.78;;;4.90;96.90;;;;;;5062439;28;37835;-55
2022/04/11 05:04:34;;;;;;;8.80;2.75;;;4.90;96.80;;;;;;5062544;28;36470;-57
2022/04/11 05:07:03;;;;;;;6.22;2.05;;;4.90;96.80;;;;;;5062794;28;37722;-56
2022/04/11 05:09:30;;;;;;;7.57;3.13;;;5.00;96.90;;;;;;5063086;28;37885;-57
2022/04/11 05:11:58;;;;;;;6.68;2.50;;;5.00;97.00;;;;;;5061735;28;37596;-57
2022/04/11 05:14:27;;;;;;;7.03;2.33;;;5.00;97.20;;;;;;5062687;28;36539;-57
2022/04/11 05:16:55;;;;;;;6.22;2.28;;;5.00;97.50;;;;;;5060875;28;37594;-57
2022/04/11 05:19:23;;;;;;;7.05;2.30;;;5.00;97.70;;;;;;5061961;28;38624;-56
2022/04/11 05:21:50;;;;;;;6.60;2.20;;;5.10;97.90;;;;;;5061890;28;37908;-57
2022/04/11 05:24:19;;;;;;;4.38;2.25;;;5.10;97.60;;;;;;5062311;28;36517;-57
2022/04/11 05:26:46;;;;;;;4.78;1.88;;;5.20;97.30;;;;;;5060942;28;39912;-57
2022/04/11 05:29:13;;;;;;;4.80;1.83;;;5.30;97.10;;;;;;5060935;28;38446;-57
2022/04/11 05:31:41;;;;;;;5.07;2.03;;;5.40;97.00;;;;;;5061160;28;36408;-57
2022/04/11 05:34:08;;;;;;;5.45;2.28;;;5.40;97.00;;;;;;5060870;28;36492;-57
2022/04/11 05:36:36;;;;;;;6.70;2.20;;;5.40;97.00;;;;;;5061930;28;36250;-57
2022/04/11 05:39:03;;;;;;;4.57;2.15;;;5.40;97.00;;;;;;5061593;28;39683;-58
2022/04/11 05:41:32;;;;;;;7.68;2.22;;;5.40;97.10;;;;;;5062743;28;37611;-57
2022/04/11 05:43:59;;;;;;;6.15;2.55;;;5.20;97.30;;;;;;5062005;28;36512;-56
2022/04/11 05:46:26;;;;;;;5.30;2.00;;;5.20;97.70;;;;;;5060994;28;38801;-57
2022/04/11 05:48:53;;;;;;;5.65;2.15;;;5.30;97.70;;;;;;5061873;28;37616;-57
2022/04/11 05:51:21;;;;;;;6.45;2.30;;;5.30;97.60;;;;;;5061209;28;37704;-57
2022/04/11 05:53:49;;;;;;;4.88;2.50;;;5.40;97.30;;;;;;5061645;28;35158;-57
2022/04/11 05:56:16;;;;;;;6.68;2.38;;;5.50;97.30;;;;;;5062226;28;37045;-57
2022/04/11 05:58:45;;;;;;;7.60;2.30;;;5.50;97.30;;;;;;5061070;28;38421;-57
2022/04/11 06:01:12;;;;;;;6.63;2.67;;;5.50;97.40;;;;;;5062752;28;37889;-57
2022/04/11 06:03:39;;;;;;;7.60;2.70;;;5.40;97.30;;;;;;5061958;28;37073;-57
2022/04/11 06:06:07;;;;;;;5.88;2.53;;;5.40;97.60;;;;;;5060781;28;37949;-57
2022/04/11 06:08:37;;;;;;;6.93;2.65;;;5.40;97.70;;;;;;5061145;28;39735;-57
2022/04/11 06:11:04;;;;;;;6.57;2.30;;;5.40;97.80;;;;;;5062340;28;37425;-56
2022/04/11 06:13:32;;;;;;;6.57;2.40;;;5.40;98.10;;;;;;5061916;28;37171;-57
2022/04/11 06:16:01;;;;;;;6.65;2.70;;;5.50;98.10;;;;;;5060798;28;36505;-56
2022/04/11 06:18:29;;;;;;;5.60;2.20;;;5.50;98.10;;;;;;5060971;28;39033;-57
2022/04/11 06:20:59;;;;;;;8.15;2.08;;;5.60;98.30;;;;;;5061686;28;38032;-56
2022/04/11 06:23:27;;;;;;;8.18;3.10;;;5.60;98.20;;;;;;5060849;28;35161;-57
2022/04/11 06:25:54;;;;;;;7.18;2.42;;;5.60;98.10;;;;;;5061420;28;38129;-57
2022/04/11 06:28:22;;;;;;;4.78;2.20;;;5.70;97.90;;;;;;5062015;28;39188;-57
2022/04/11 06:30:49;;;;;;;6.43;2.45;;;5.80;97.90;;;;;;5061699;28;37348;-56
2022/04/11 06:33:21;;;;;;;5.20;2.22;;;5.80;97.90;;;;;;5058996;28;37097;-56
2022/04/11 06:35:48;;;;;;;6.32;2.58;;;5.80;98.10;;;;;;5058775;28;38034;-57
2022/04/11 06:38:16;;;;;;;6.60;2.30;;;5.80;98.20;;;;;;5060408;28;39469;-56
2022/04/11 06:40:43;;;;;;;6.60;2.72;;;5.90;98.30;;;;;;5059973;28;38980;-56
2022/04/11 06:43:10;;;;;;;5.65;2.42;;;5.90;98.10;;;;;;5061932;28;37251;-56
2022/04/11 06:45:38;;;;;;;6.75;3.20;;;6.00;98.10;;;;;;5062380;28;36391;-57
2022/04/11 06:48:06;;;;;;;4.65;2.15;;;6.10;98.40;;;;;;5061554;28;38134;-57
2022/04/11 06:50:35;;;;;;;6.78;2.63;;;6.10;98.30;;;;;;5059725;28;37120;-56
2022/04/11 06:53:03;;;;;;;6.65;2.58;;;6.20;98.40;;;;;;5059366;28;35886;-57
2022/04/11 06:55:30;;;;;;;7.82;2.83;;;6.20;98.50;;;;;;5060178;28;37750;-58
2022/04/11 06:57:57;;;;;;;8.88;2.55;;;6.30;98.30;;;;;;5061053;28;39037;-58
2022/04/11 07:00:25;;;;;;;8.50;2.47;;;6.50;98.30;;;;;;5061622;28;40412;-58
2022/04/11 07:02:52;;;;;;;7.22;2.47;;;6.50;97.90;;;;;;5063599;28;36662;-57
2022/04/11 07:05:19;;;;;;;7.00;2.10;;;6.70;97.50;;;;;;5064744;28;36218;-58
2022/04/11 07:07:49;;;;;;;9.27;3.05;;;6.80;97.20;;;;;;5063580;28;38234;-57
2022/04/11 07:10:16;;;;;;;7.18;2.10;;;6.90;97.00;;;;;;5064473;28;36718;-59
2022/04/11 07:12:43;;;;;;;8.95;2.00;;;7.00;97.00;;;;;;5064499;28;37363;-57
2022/04/11 07:15:11;;;;;;;5.85;2.30;;;7.10;96.50;;;;;;5064379;28;37301;-57
2022/04/11 07:17:38;;;;;;;7.70;2.72;;;7.20;96.30;;;;;;5064859;28;38651;-58
2022/04/11 07:20:07;;;;;;;6.00;2.40;;;7.30;96.10;;;;;;5065059;28;39149;-57
2022/04/11 07:22:35;;;;;;;7.20;2.33;;;7.40;95.80;;;;;;5064913;28;37902;-57
2022/04/11 07:25:05;;;;;;;7.75;2.60;;;7.50;95.60;;;;;;5063266;28;37874;-58
2022/04/11 07:27:32;;;;;;;5.82;2.40;;;7.50;95.40;;;;;;5062833;28;38884;-57
2022/04/11 07:30:00;;;;;;;6.10;2.30;;;7.60;95.00;;;;;;5061741;28;37896;-58
2022/04/11 07:32:27;;;;;;;4.70;2.33;;;7.70;94.90;;;;;;5062532;28;36444;-59
2022/04/11 07:34:58;;;;;;;6.63;2.53;;;7.80;94.60;;;;;;5062234;28;37519;-58
2022/04/11 07:37:27;;;;;;;7.47;2.22;;;8.00;94.10;;;;;;5060390;28;38337;-52
2022/04/11 07:39:55;;;;;;;7.60;2.45;;;8.10;93.50;;;;;;5064463;28;36555;-57
2022/04/11 07:42:24;;;;;;;6.65;1.83;;;8.20;93.30;;;;;;5064284;28;36557;-58
2022/04/11 07:44:51;;;;;;;7.15;2.35;;;8.40;92.80;;;;;;5063508;28;38346;-58
2022/04/11 07:47:18;;;;;;;5.20;1.70;;;8.50;92.10;;;;;;5064449;28;38881;-52
2022/04/11 07:49:46;;;;;;;4.35;1.63;;;8.60;91.90;;;;;;5064226;28;37990;-52
2022/04/11 07:52:13;;;;;;;4.75;1.73;;;8.60;90.70;;;;;;5064857;28;36744;-49
2022/04/11 07:54:41;;;;;;;5.95;1.88;;;8.70;90.20;;;;;;5064451;28;36446;-51
2022/04/11 07:57:12;;;;;;;6.03;1.38;;;8.80;88.80;;;;;;5065477;28;42125;-57
2022/04/11 07:59:41;;;;;;;5.25;1.63;;;8.90;88.90;;;;;;5063969;28;38158;-58
2022/04/11 08:02:09;;;;;;;4.85;1.40;;;9.10;88.40;;;;;;5064642;28;36910;-57
2022/04/11 08:04:36;;;;;;;4.25;1.42;;;9.20;86.10;;;;;;5063475;28;37633;-58
2022/04/11 08:07:07;;;;;;;8.07;1.75;;;9.40;84.40;;;;;;5063676;28;37919;-58
2022/04/11 08:09:34;;;;;;;4.05;1.23;;;9.50;83.50;;;;;;5064637;28;38768;-58
2022/04/11 08:12:02;;;;;;;4.53;1.15;;;9.60;83.20;;;;;;5063366;28;37670;-58
2022/04/11 08:14:32;;;;;;;3.78;1.20;;;9.80;82.20;;;;;;5061690;28;37568;-58
2022/04/11 08:17:03;;;;;;;2.70;0.95;;;10.00;81.10;;;;;;5063118;28;38730;-58
2022/04/11 08:19:30;;;;;;;5.75;1.52;;;10.20;79.30;;;;;;5062753;28;37834;-58
2022/04/11 08:21:58;;;;;;;6.72;1.20;;;10.40;77.90;;;;;;5063248;28;35377;-59
2022/04/11 08:24:28;;;;;;;5.63;1.60;;;10.50;76.30;;;;;;5058669;28;36227;-50
2022/04/11 08:26:58;;;;;;;4.20;1.35;;;10.60;75.30;;;;;;5061288;28;39988;-50
2022/04/11 08:29:25;;;;;;;5.88;1.45;;;10.70;74.80;;;;;;5060369;28;39830;-50
2022/04/11 08:31:53;;;;;;;2.95;1.10;;;10.70;73.80;;;;;;5061769;28;36507;-58
2022/04/11 08:34:21;;;;;;;9.02;1.40;;;10.80;73.20;;;;;;5061772;28;36508;-58
2022/04/11 08:36:49;;;;;;;5.93;1.20;;;11.00;73.30;;;;;;5061913;28;38643;-50
2022/04/11 08:39:17;;;;;;;5.50;1.48;;;11.30;71.80;;;;;;5062163;28;38384;-50
2022/04/11 08:41:45;;;;;;;5.78;1.60;;;11.60;70.60;;;;;;5063505;28;37069;-52
2022/04/11 08:44:14;;;;;;;8.63;1.90;;;12.10;69.70;;;;;;5062808;28;36630;-49
2022/04/11 08:46:42;;;;;;;10.15;1.42;;;12.30;67.50;;;;;;5062002;28;38330;-51
2022/04/11 08:49:10;;;;;;;5.05;1.40;;;12.60;67.00;;;;;;5062902;28;38398;-51
2022/04/11 08:51:39;;;;;;;10.15;1.73;;;12.80;65.60;;;;;;5064203;28;36430;-50
2022/04/11 08:54:09;;;;;;;3.88;1.35;;;13.00;64.40;;;;;;5063169;28;38474;-49
2022/04/11 08:56:37;;;;;;;7.45;1.92;;;13.20;62.70;;;;;;5063273;28;36867;-52
2022/04/11 08:59:04;;;;;;;4.65;1.42;;;13.40;60.70;;;;;;5063224;28;37347;-59
2022/04/11 09:01:34;;;;;;;5.88;1.35;;;13.60;58.70;;;;;;5063082;28;36505;-58
2022/04/11 09:04:02;;;;;;;5.28;1.35;;;13.70;58.60;;;;;;5063347;28;36340;-58
2022/04/11 09:06:33;;;;;;;3.53;1.48;;;14.00;58.30;;;;;;5063165;28;38160;-51
2022/04/11 09:09:04;;;;;;;6.55;1.63;;;14.30;57.40;;;;;;5063031;28;37773;-52
2022/04/11 09:11:34;;;;;;;4.80;1.63;;;14.70;55.40;;;;;;5063420;28;37181;-51
2022/04/11 09:14:03;;;;;;;8.10;1.90;;;15.30;54.90;;;;;;5063599;28;37739;-49
2022/04/11 09:16:43;;;;;;;5.70;1.40;;;15.70;51.80;;;;;;5063729;28;38535;-49
2022/04/11 09:19:20;;;;;;;7.22;1.45;;;16.00;48.60;;;;;;5064146;28;37257;-47
2022/04/11 09:21:48;;;;;;;7.13;1.65;;;16.10;47.20;;;;;;5062389;28;36542;-51
2022/04/11 09:24:19;;;;;;;6.75;1.35;;;16.30;49.30;;;;;;5062336;28;38201;-49
2022/04/11 09:26:46;;;;;;;8.65;2.25;;;16.40;47.80;;;;;;5063145;28;37104;-50
2022/04/11 09:29:15;;;;;;;7.57;1.35;;;16.50;47.00;;;;;;5062102;28;37402;-47
2022/04/11 09:31:42;;;;;;;5.35;1.50;;;16.50;45.50;;;;;;5062852;28;36061;-50
2022/04/11 09:34:20;;;;;;;5.07;1.10;;;16.40;44.50;;;;;;5059861;28;38857;-56
2022/04/11 09:36:50;;;;;;;4.93;1.33;;;16.30;42.10;;;;;;5062054;28;38635;-56
2022/04/11 09:39:21;;;;;;;3.80;1.08;;;16.20;43.80;;;;;;5062437;28;36732;-56
2022/04/11 09:41:50;;;;;;;6.05;1.13;;;16.30;44.20;;;;;;5062687;28;36622;-57
2022/04/11 09:44:25;;;;;;;5.38;1.30;;;16.50;43.40;;;;;;5062877;28;37503;-56
2022/04/11 09:46:54;;;;;;;6.30;1.60;;;16.50;40.80;;;;;;5063214;28;37971;-56
2022/04/11 09:49:22;;;;;;;5.95;1.10;;;16.60;43.20;;;;;;5062708;28;38394;-56
2022/04/11 09:52:12;;;;;;;4.25;1.10;;;16.50;42.00;;;;;;5062846;28;37842;-49
2022/04/11 09:54:43;;;;;;;8.05;1.10;;;16.50;41.70;;;;;;5061749;28;36514;-48
2022/04/11 09:57:11;;;;;;;3.45;1.00;;;16.50;41.60;;;;;;5062001;28;36876;-48
2022/04/11 09:59:40;;;;;;;3.80;1.15;;;16.50;40.80;;;;;;5058466;28;36473;-50
2022/04/11 10:02:10;;;;;;;4.28;1.15;;;16.40;40.90;;;;;;5062096;28;37247;-51
2022/04/11 10:04:38;;;;;;;3.70;0.80;;;16.50;40.60;;;;;;5061076;28;38281;-48
2022/04/11 10:07:09;;;;;;;4.35;1.02;;;16.50;41.20;;;;;;5061379;28;39036;-50
2022/04/11 10:09:43;;;;;;;5.28;1.58;;;16.50;39.80;;;;;;5062432;28;38157;-49
2022/04/11 10:12:13;;;;;;;6.32;1.38;;;16.40;41.00;;;;;;5061868;28;37290;-50
2022/04/11 10:14:42;;;;;;;3.92;1.10;;;16.50;41.50;;;;;;5061382;28;37679;-49
2022/04/11 10:17:10;;;;;;;4.22;1.35;;;16.40;41.30;;;;;;5062994;28;37716;-50
2022/04/11 10:19:42;;;;;;;5.57;1.20;;;16.40;41.10;;;;;;5062762;28;37430;-49
2022/04/11 10:22:17;;;;;;;4.97;1.30;;;16.40;41.80;;;;;;5062021;28;40677;-48
2022/04/11 10:24:56;;;;;;;4.10;1.55;;;16.50;40.50;;;;;;5062165;28;40205;-48
2022/04/11 10:27:25;;;;;;;6.30;1.50;;;16.40;39.30;;;;;;5061924;28;38610;-49
2022/04/11 10:29:54;;;;;;;4.70;1.50;;;16.30;40.70;;;;;;5060118;28;36278;-50
2022/04/11 10:32:23;;;;;;;4.70;1.40;;;16.30;41.20;;;;;;5059523;28;36618;-49
2022/04/11 10:34:55;;;;;;;5.55;1.38;;;16.30;41.80;;;;;;5057806;28;37604;-50
2022/04/11 10:37:24;;;;;;;5.88;1.42;;;16.20;41.90;;;;;;5062219;28;38640;-50
2022/04/11 10:39:54;;;;;;;5.03;1.98;;;16.20;42.10;;;;;;5063771;28;37751;-49
2022/04/11 10:42:24;;;;;;;5.22;1.38;;;16.20;41.90;;;;;;5064948;28;36140;-47
2022/04/11 10:44:54;;;;;;;4.47;1.40;;;16.30;41.40;;;;;;5065031;28;38277;-56
2022/04/11 10:47:32;;;;;;;5.93;1.90;;;16.20;41.50;;;;;;5064133;28;38288;-56
2022/04/11 10:50:26;;;;;;;6.53;1.98;;;16.20;41.90;;;;;;5064812;28;37969;-56
2022/04/11 10:52:54;;;;;;;;;;;16.20;40.90;;;;;;5065504;28;37042;-57
2022/04/11 10:55:25;;;;;;;5.18;1.50;;;16.30;42.00;;;;;;5065473;28;38037;-56
2022/04/11 10:57:55;;;;;;;16.15;2.13;;;16.30;42.30;;;;;;5065340;28;37142;-57
2022/04/11 11:00:27;;;;;;;6.43;1.90;;;16.30;42.50;;;;;;5065727;28;38821;-56
2022/04/11 11:03:18;;;;;;;5.45;1.70;;;16.40;43.10;;;;;;5060924;28;37198;-56
2022/04/11 11:05:49;;;;;;;7.22;1.95;;;16.40;42.70;;;;;;5050950;28;39337;-57
2022/04/11 11:08:34;;;;;;;5.40;1.73;;;16.40;42.30;;;;;;5064243;28;37735;-50
2022/04/11 11:11:20;;;;;;;6.70;1.98;;;16.40;41.40;;;;;;5064594;28;36228;-58
2022/04/11 11:13:48;;;;;;;6.30;1.88;;;16.40;41.30;;;;;;5063568;28;36174;-58
2022/04/11 11:16:43;;;;;;;7.60;2.40;;;16.40;41.40;;;;;;5062623;28;36361;-57
2022/04/11 11:19:17;;;;;;;6.38;2.20;;;16.40;40.50;;;;;;5061276;28;37550;-57
2022/04/11 11:22:09;;;;;;;6.78;2.45;;;16.40;41.50;;;;;;5062532;28;38665;-57
2022/04/11 11:24:36;;;;;;;5.05;2.17;;;16.40;40.40;;;;;;5062429;28;35325;-57
2022/04/11 11:27:10;;;;;;;6.20;2.10;;;16.40;41.10;;;;;;5062820;28;37392;-58
2022/04/11 11:29:44;;;;;;;6.00;2.22;;;16.30;41.00;;;;;;5062259;28;38512;-49
2022/04/11 11:32:14;;;;;;;4.82;2.25;;;16.30;40.90;;;;;;5062675;28;37670;-51
2022/04/11 11:34:42;;;;;;;8.15;2.20;;;16.20;41.40;;;;;;5062600;28;37940;-51
2022/04/11 11:37:12;;;;;;;4.85;2.30;;;16.20;41.80;;;;;;5061145;28;37660;-51
2022/04/11 11:39:41;;;;;;;5.90;2.10;;;16.20;41.90;;;;;;5062952;28;39585;-49
2022/04/11 11:42:14;;;;;;;5.25;2.03;;;16.30;42.30;;;;;;5063995;28;38947;-51
2022/04/11 11:44:45;;;;;;;5.97;2.50;;;16.30;41.60;;;;;;5063591;28;37561;-50
2022/04/11 11:47:12;;;;;;;7.43;3.00;;;16.20;41.80;;;;;;5063224;28;39727;-50
2022/04/11 11:49:41;;;;;;;7.38;2.65;;;16.10;41.50;;;;;;5063596;28;38173;-49
2022/04/11 11:52:14;;;;;;;8.20;2.38;;;16.00;42.00;;;;;;5062944;28;38234;-51
2022/04/11 11:54:47;;;;;;;6.43;2.30;;;16.00;41.40;;;;;;5063263;28;35270;-50
2022/04/11 11:57:18;;;;;;;7.03;2.65;;;15.90;41.90;;;;;;5063228;28;39574;-50
2022/04/11 11:59:55;;;;;;;7.03;3.05;;;15.90;42.30;;;;;;5063186;28;38675;-48
2022/04/11 12:05:21;;;;;;;7.60;2.17;;;15.90;42.20;;;;;;5064135;28;37277;-51
2022/04/11 12:07:49;;;;;;;6.97;2.67;;;15.90;42.50;;;;;;5062008;28;37446;-50
2022/04/11 12:10:19;;;;;;;6.15;2.20;;;15.90;42.70;;;;;;5063023;28;39019;-57
2022/04/11 12:12:48;;;;;;;6.47;2.13;;;15.80;42.30;;;;;;5063716;28;38172;-57
2022/04/11 12:15:17;;;;;;;7.75;2.95;;;15.80;43.60;;;;;;5061808;28;36528;-57
2022/04/11 12:17:47;;;;;;;6.72;2.85;;;15.80;43.60;;;;;;5061612;28;38744;-57
2022/04/11 12:20:16;;;;;;;7.60;2.63;;;15.80;43.40;;;;;;5061363;28;38120;-57
2022/04/11 12:23:02;;;;;;;4.95;1.85;;;15.80;44.00;;;;;;5062058;28;38644;-57
2022/04/11 12:25:30;;;;;;;6.63;2.00;;;15.70;41.60;;;;;;5061990;28;39029;-57
2022/04/11 12:28:17;;;;;;;7.18;2.70;;;15.60;42.60;;;;;;5061720;28;38349;-57
2022/04/11 12:30:46;;;;;;;6.65;2.47;;;15.50;43.60;;;;;;5062265;28;36965;-57
2022/04/11 12:33:34;;;;;;;6.07;2.20;;;15.50;43.50;;;;;;5062431;28;38610;-50
2022/04/11 12:36:10;;;;;;;5.25;2.10;;;15.40;43.10;;;;;;5062714;28;36852;-50
2022/04/11 12:38:42;;;;;;;6.32;2.60;;;15.40;42.90;;;;;;5063363;28;37052;-49
2022/04/11 12:41:27;;;;;;;9.30;2.53;;;15.30;43.10;;;;;;5062874;28;36302;-50
2022/04/11 12:44:17;;;;;;;6.28;2.30;;;15.20;43.30;;;;;;5061874;28;39372;-51
2022/04/11 12:46:46;;;;;;;5.72;2.10;;;15.10;41.30;;;;;;5061087;28;36602;-49
2022/04/11 12:49:15;;;;;;;6.28;2.45;;;15.00;42.50;;;;;;5061855;28;36304;-50
2022/04/11 12:51:43;;;;;;;5.32;2.10;;;15.00;42.40;;;;;;5063658;28;38302;-48
2022/04/11 12:54:12;;;;;;;6.65;2.65;;;14.90;42.60;;;;;;5062766;28;37592;-48
2022/04/11 12:56:43;;;;;;;6.00;2.15;;;14.90;42.80;;;;;;5061459;28;35364;-57
2022/04/11 12:59:30;;;;;;;7.88;2.45;;;14.90;43.40;;;;;;5059643;28;37589;-57
2022/04/11 13:02:05;;;;;;;7.72;2.55;;;14.90;43.70;;;;;;5060938;28;38718;-57
2022/04/11 13:04:33;;;;;;;6.00;2.38;;;14.90;43.80;;;;;;5056128;28;36769;-57
2022/04/11 13:07:01;;;;;;;5.60;2.25;;;14.80;44.20;;;;;;5057086;28;36146;-58